Time;durP1;ratioP1;P1;durP2;ratioP2;P2;SDS_P1;SDS_P2;PMS_P1;PMS_P2;Temp;Humidity;BMP_temperature;BMP_pressure;BME280_temperature;BME280_humidity;BME280_pressure;Samples;Min_cycle;Max_cycle;Signal;HPM_P1;HPM_P2
2021/01/06 00:00:45;;;;;;;7.07;1.00;;;21.50;96.60;;;;;;5067796;28;20394;-84
2021/01/06 00:03:18;;;;;;;5.20;0.90;;;21.50;97.80;;;;;;5072017;28;20451;-85
2021/01/06 00:05:46;;;;;;;5.20;0.90;;;21.30;96.40;;;;;;5071459;28;20469;-84
2021/01/06 00:08:13;;;;;;;3.65;0.73;;;21.20;97.60;;;;;;5071803;28;20856;-83
2021/01/06 00:10:41;;;;;;;5.10;0.90;;;21.40;97.50;;;;;;5071193;28;20374;-83
2021/01/06 00:13:08;;;;;;;2.72;0.80;;;21.50;96.80;;;;;;5071370;28;20401;-84
2021/01/06 00:15:37;;;;;;;3.83;0.88;;;21.30;97.20;;;;;;5071219;28;20402;-84
2021/01/06 00:18:05;;;;;;;3.10;0.95;;;21.20;97.30;;;;;;5071095;28;20378;-84
2021/01/06 00:20:32;;;;;;;5.43;0.97;;;21.10;97.90;;;;;;5071087;28;20380;-84
2021/01/06 00:23:00;;;;;;;7.18;1.00;;;20.90;97.30;;;;;;5071125;28;20417;-84
2021/01/06 00:25:30;;;;;;;7.20;0.80;;;20.80;97.50;;;;;;5070722;28;20477;-84
2021/01/06 00:27:57;;;;;;;3.65;0.82;;;20.70;98.40;;;;;;5070940;28;20414;-84
2021/01/06 00:30:57;;;;;;;4.72;0.80;;;20.70;98.80;;;;;;5070863;28;20408;-84
2021/01/06 00:33:27;;;;;;;4.40;1.10;;;20.70;98.90;;;;;;5039493;28;20917;-84
2021/01/06 00:35:58;;;;;;;4.33;1.17;;;20.70;99.50;;;;;;5057763;28;20734;-85
2021/01/06 00:38:27;;;;;;;5.18;1.00;;;20.50;99.90;;;;;;5071118;28;20857;-83
2021/01/06 00:40:54;;;;;;;5.55;0.93;;;20.40;99.90;;;;;;5070978;28;20402;-84
2021/01/06 00:43:21;;;;;;;5.05;1.08;;;20.20;99.90;;;;;;5071211;28;20375;-83
2021/01/06 00:45:48;;;;;;;6.43;0.95;;;20.20;99.90;;;;;;5070549;28;20398;-83
2021/01/06 00:48:16;;;;;;;4.13;0.90;;;20.30;99.90;;;;;;5070622;28;20736;-84
2021/01/06 00:50:46;;;;;;;3.53;0.88;;;20.40;99.90;;;;;;5070631;28;20960;-84
2021/01/06 00:53:23;;;;;;;3.67;1.07;;;20.40;99.90;;;;;;5050847;28;20403;-83
2021/01/06 00:55:52;;;;;;;4.57;0.80;;;20.40;99.90;;;;;;5051238;28;20390;-83
2021/01/06 00:58:20;;;;;;;6.07;1.23;;;20.30;99.90;;;;;;5051035;28;20376;-84
2021/01/06 01:00:47;;;;;;;7.10;0.95;;;20.30;99.90;;;;;;5039898;28;20386;-84
2021/01/06 01:03:16;;;;;;;5.65;0.88;;;20.40;99.90;;;;;;5070992;28;20389;-84
2021/01/06 01:05:45;;;;;;;4.65;1.08;;;20.50;99.90;;;;;;5071033;28;20378;-84
2021/01/06 01:08:12;;;;;;;4.90;0.80;;;20.60;99.90;;;;;;5070693;28;20370;-84
2021/01/06 01:10:45;;;;;;;3.97;0.70;;;20.80;99.90;;;;;;5069952;28;20903;-83
2021/01/06 01:13:24;;;;;;;5.43;0.90;;;20.90;99.90;;;;;;5059095;28;20409;-84
2021/01/06 01:15:54;;;;;;;5.00;0.90;;;21.10;99.50;;;;;;5070036;28;20394;-84
2021/01/06 01:18:24;;;;;;;4.57;0.70;;;21.30;99.90;;;;;;5051652;28;20816;-84
2021/01/06 01:20:57;;;;;;;4.18;0.88;;;21.40;98.40;;;;;;5069608;28;20907;-84
2021/01/06 01:23:26;;;;;;;4.03;0.70;;;21.40;99.90;;;;;;5070411;28;20374;-83
2021/01/06 01:25:54;;;;;;;4.63;1.00;;;21.30;98.30;;;;;;5069731;28;20794;-83
2021/01/06 01:28:23;;;;;;;7.45;1.20;;;21.20;98.10;;;;;;5070228;28;21294;-85
2021/01/06 01:30:51;;;;;;;6.38;1.02;;;21.10;98.60;;;;;;5069064;28;20426;-84
2021/01/06 01:33:20;;;;;;;5.18;1.20;;;20.90;98.30;;;;;;5069281;28;20493;-84
2021/01/06 01:35:47;;;;;;;5.03;1.13;;;20.80;98.40;;;;;;5067585;28;21141;-85
2021/01/06 01:38:21;;;;;;;4.85;0.80;;;20.60;98.50;;;;;;5069612;28;20397;-84
2021/01/06 01:40:55;;;;;;;6.90;1.00;;;20.60;98.80;;;;;;5057546;28;20808;-84
2021/01/06 01:43:22;;;;;;;5.80;1.17;;;20.60;99.30;;;;;;5052083;28;20838;-84
2021/01/06 01:45:49;;;;;;;5.80;1.17;;;20.70;99.70;;;;;;5069890;28;20386;-85
2021/01/06 01:48:37;;;;;;;5.47;1.13;;;20.70;99.50;;;;;;5069826;28;20381;-84
2021/01/06 01:51:22;;;;;;;5.13;0.90;;;20.80;98.70;;;;;;5069182;28;20390;-85
2021/01/06 01:54:07;;;;;;;7.22;1.20;;;20.90;98.40;;;;;;5076427;28;20455;-85
2021/01/06 01:56:46;;;;;;;4.63;1.00;;;21.20;98.40;;;;;;5069357;28;20386;-83
2021/01/06 01:59:30;;;;;;;5.90;1.10;;;21.40;97.30;;;;;;5069625;28;20374;-87
2021/01/06 02:02:02;;;;;;;6.65;1.30;;;21.60;96.40;;;;;;5052181;28;20449;-84
2021/01/06 02:04:47;;;;;;;8.65;1.60;;;21.40;96.40;;;;;;5069626;28;20468;-86
2021/01/06 02:07:21;;;;;;;8.73;1.63;;;21.50;96.30;;;;;;5072504;28;20370;-85
2021/01/06 02:09:56;;;;;;;7.70;1.40;;;21.70;96.30;;;;;;5069269;28;20382;-86
2021/01/06 02:13:03;;;;;;;6.90;1.52;;;22.00;95.60;;;;;;5069359;28;20386;-83
2021/01/06 02:15:36;;;;;;;5.35;1.17;;;22.00;95.60;;;;;;5068016;28;20421;-84
2021/01/06 02:18:06;;;;;;;6.13;1.42;;;22.00;95.20;;;;;;5068350;28;20394;-84
2021/01/06 02:20:33;;;;;;;9.70;1.70;;;21.90;95.00;;;;;;5057523;28;20506;-83
2021/01/06 02:23:01;;;;;;;8.97;1.40;;;21.90;95.40;;;;;;5059212;28;20394;-83
2021/01/06 02:25:32;;;;;;;7.10;1.35;;;22.00;95.10;;;;;;5067693;28;20385;-84
2021/01/06 02:28:00;;;;;;;9.32;1.70;;;22.10;95.00;;;;;;5069275;28;20381;-84
2021/01/06 02:30:28;;;;;;;9.83;1.67;;;22.10;95.10;;;;;;5068324;28;20385;-84
2021/01/06 02:32:55;;;;;;;8.33;1.70;;;22.00;93.50;;;;;;5053551;28;20388;-84
2021/01/06 02:35:23;;;;;;;8.82;1.73;;;21.90;94.00;;;;;;5056670;28;20705;-85
2021/01/06 02:37:50;;;;;;;8.80;1.83;;;21.90;94.10;;;;;;5068327;28;20436;-85
2021/01/06 02:40:18;;;;;;;9.80;1.98;;;22.10;93.30;;;;;;5068972;28;20440;-84
2021/01/06 02:42:46;;;;;;;7.97;1.65;;;21.90;93.80;;;;;;5068638;28;20397;-83
2021/01/06 02:45:15;;;;;;;9.75;1.65;;;21.90;93.50;;;;;;5068761;28;20370;-84
2021/01/06 02:47:47;;;;;;;8.63;1.45;;;21.70;94.20;;;;;;5062364;28;20443;-83
2021/01/06 02:50:18;;;;;;;10.18;1.55;;;21.80;93.50;;;;;;5066316;28;20390;-83
2021/01/06 02:53:01;;;;;;;8.97;1.60;;;22.00;93.20;;;;;;5060983;28;20483;-82
2021/01/06 02:55:30;;;;;;;19.10;3.33;;;22.30;93.30;;;;;;5063494;28;20746;-83
2021/01/06 02:58:02;;;;;;;8.43;1.60;;;22.30;92.90;;;;;;5061591;28;20378;-83
2021/01/06 03:00:29;;;;;;;7.18;1.30;;;22.40;92.10;;;;;;5066593;28;20398;-82
2021/01/06 03:02:57;;;;;;;8.93;1.60;;;22.40;92.90;;;;;;5067189;28;20487;-83
2021/01/06 03:06:06;;;;;;;9.13;1.90;;;22.40;92.50;;;;;;5066480;28;20410;-83
2021/01/06 03:08:35;;;;;;;11.10;1.80;;;22.30;92.40;;;;;;5044901;28;20409;-83
2021/01/06 03:11:03;;;;;;;8.88;1.92;;;22.10;92.50;;;;;;5065118;28;20430;-83
2021/01/06 03:13:31;;;;;;;9.25;1.70;;;22.10;93.30;;;;;;5060810;28;20438;-82
2021/01/06 03:15:59;;;;;;;13.07;2.30;;;22.20;92.50;;;;;;5047865;28;20388;-82
2021/01/06 03:18:27;;;;;;;16.17;3.33;;;22.40;92.00;;;;;;5057121;28;20389;-83
2021/01/06 03:21:05;;;;;;;12.60;1.90;;;22.40;92.10;;;;;;5049589;28;20435;-82
2021/01/06 03:23:38;;;;;;;9.57;2.03;;;22.60;91.20;;;;;;5066296;28;20421;-82
2021/01/06 03:26:10;;;;;;;8.63;1.60;;;22.70;91.80;;;;;;5058587;28;20397;-82
2021/01/06 03:28:38;;;;;;;9.30;2.13;;;22.80;91.20;;;;;;5068383;28;20452;-82
2021/01/06 03:31:12;;;;;;;12.07;2.03;;;22.60;91.60;;;;;;5066465;28;20776;-83
2021/01/06 03:33:56;;;;;;;13.40;2.17;;;22.70;92.60;;;;;;5055610;28;20435;-83
2021/01/06 03:36:28;;;;;;;13.43;2.13;;;22.90;92.50;;;;;;5059419;28;20378;-83
2021/01/06 03:39:15;;;;;;;12.40;2.22;;;22.80;93.90;;;;;;5071192;28;20390;-82
2021/01/06 03:41:43;;;;;;;13.98;2.45;;;23.00;92.90;;;;;;5069323;28;20422;-83
2021/01/06 03:44:13;;;;;;;12.83;2.07;;;23.10;91.70;;;;;;5071235;28;20388;-84
2021/01/06 03:46:46;;;;;;;10.88;1.60;;;22.70;91.40;;;;;;5069206;28;20412;-85
2021/01/06 03:49:37;;;;;;;8.93;2.00;;;22.40;91.50;;;;;;5068078;28;20394;-83
2021/01/06 03:52:44;;;;;;;8.73;1.95;;;22.20;91.70;;;;;;5067419;28;20395;-83
2021/01/06 03:55:29;;;;;;;6.65;1.50;;;22.10;92.80;;;;;;5039556;28;20489;-83
2021/01/06 03:57:57;;;;;;;6.23;1.50;;;22.30;92.30;;;;;;5071229;28;20378;-83
2021/01/06 04:00:50;;;;;;;7.13;1.30;;;22.60;91.10;;;;;;5070770;28;20386;-83
2021/01/06 04:03:21;;;;;;;9.60;1.42;;;22.70;91.30;;;;;;5071757;28;20962;-84
2021/01/06 04:05:49;;;;;;;9.10;1.53;;;22.90;90.80;;;;;;5063206;28;20383;-83
2021/01/06 04:08:26;;;;;;;9.20;1.60;;;23.00;89.40;;;;;;5061472;28;20803;-85
2021/01/06 04:10:57;;;;;;;14.48;1.83;;;23.00;91.20;;;;;;5071115;28;20869;-83
2021/01/06 04:13:24;;;;;;;10.75;1.80;;;23.10;91.30;;;;;;5069573;28;20404;-83
2021/01/06 04:15:51;;;;;;;7.40;1.75;;;22.90;91.50;;;;;;5063432;28;20499;-83
2021/01/06 04:18:18;;;;;;;7.72;1.80;;;22.50;91.10;;;;;;5067048;28;21391;-83
2021/01/06 04:20:45;;;;;;;10.73;1.45;;;22.30;92.30;;;;;;5069794;28;20390;-82
2021/01/06 04:23:16;;;;;;;9.40;2.00;;;22.30;92.10;;;;;;5070388;28;20444;-82
2021/01/06 04:25:49;;;;;;;13.05;2.08;;;22.30;91.40;;;;;;5069816;28;20386;-83
2021/01/06 04:28:25;;;;;;;7.50;1.40;;;22.20;92.70;;;;;;5066397;28;20402;-81
2021/01/06 04:30:56;;;;;;;7.25;1.73;;;22.20;92.50;;;;;;5068771;28;20398;-83
2021/01/06 04:33:45;;;;;;;9.50;1.48;;;22.00;92.60;;;;;;5065411;28;20485;-84
2021/01/06 04:36:20;;;;;;;9.10;1.80;;;21.60;93.40;;;;;;5060286;28;20429;-83
2021/01/06 04:38:49;;;;;;;9.75;1.95;;;21.40;93.40;;;;;;5069476;28;20397;-82
2021/01/06 04:41:37;;;;;;;11.30;2.20;;;21.30;94.40;;;;;;5067147;28;20460;-82
2021/01/06 04:44:19;;;;;;;12.43;1.63;;;21.30;94.70;;;;;;5066871;28;20401;-83
2021/01/06 04:47:27;;;;;;;8.50;1.35;;;21.30;94.30;;;;;;5056087;28;20923;-83
2021/01/06 04:50:23;;;;;;;10.30;1.70;;;21.30;94.30;;;;;;5022304;28;20406;-83
2021/01/06 04:53:08;;;;;;;10.05;1.55;;;21.10;94.60;;;;;;5069271;28;20386;-83
2021/01/06 04:55:38;;;;;;;9.27;1.98;;;21.20;94.80;;;;;;5069263;28;20891;-83
2021/01/06 04:58:36;;;;;;;9.73;1.40;;;21.30;94.50;;;;;;5069911;28;20894;-83
2021/01/06 05:01:19;;;;;;;7.05;1.38;;;21.40;93.30;;;;;;5029766;28;20735;-82
2021/01/06 05:04:10;;;;;;;9.45;1.65;;;21.40;93.30;;;;;;5057678;28;20407;-83
2021/01/06 05:06:50;;;;;;;8.20;1.77;;;21.80;94.20;;;;;;5069835;28;20371;-82
2021/01/06 05:09:21;;;;;;;6.72;1.35;;;21.90;92.30;;;;;;5058852;28;20380;-83
2021/01/06 05:12:08;;;;;;;11.77;1.90;;;22.00;92.50;;;;;;5069335;28;20900;-82
2021/01/06 05:14:44;;;;;;;12.43;1.90;;;21.90;92.50;;;;;;5062880;28;20904;-83
2021/01/06 05:17:13;;;;;;;10.25;1.67;;;21.80;93.50;;;;;;5061067;28;20389;-83
2021/01/06 05:19:44;;;;;;;14.13;1.95;;;21.90;93.60;;;;;;5063277;28;20392;-83
2021/01/06 05:22:12;;;;;;;8.37;1.50;;;22.10;93.40;;;;;;5062496;28;20748;-83
2021/01/06 05:24:47;;;;;;;9.70;1.67;;;22.10;92.70;;;;;;5067908;28;20761;-83
2021/01/06 05:27:14;;;;;;;9.10;1.75;;;22.20;92.10;;;;;;5059903;28;20396;-83
2021/01/06 05:29:44;;;;;;;8.05;1.80;;;21.90;92.30;;;;;;5063154;28;20443;-82
2021/01/06 05:32:32;;;;;;;8.98;1.52;;;21.80;93.00;;;;;;5057659;28;20474;-82
2021/01/06 05:35:07;;;;;;;9.77;1.50;;;21.70;92.30;;;;;;5066157;28;20398;-83
2021/01/06 05:37:34;;;;;;;9.60;1.88;;;21.60;92.30;;;;;;5068680;28;20478;-84
2021/01/06 05:40:07;;;;;;;7.87;1.33;;;21.50;93.20;;;;;;5066772;28;20409;-83
2021/01/06 05:42:40;;;;;;;11.82;1.35;;;21.50;92.70;;;;;;5068172;28;20392;-83
2021/01/06 05:45:07;;;;;;;9.27;1.27;;;21.40;92.80;;;;;;5066004;28;20394;-82
2021/01/06 05:47:55;;;;;;;6.40;1.17;;;21.50;92.70;;;;;;5068232;28;20417;-83
2021/01/06 05:50:32;;;;;;;8.93;1.98;;;21.20;92.80;;;;;;5069542;28;20711;-83
2021/01/06 05:53:08;;;;;;;8.05;1.60;;;21.00;93.50;;;;;;5063299;28;20408;-82
2021/01/06 05:55:37;;;;;;;8.93;1.38;;;20.90;94.20;;;;;;5049865;28;20383;-83
2021/01/06 05:58:31;;;;;;;8.38;1.48;;;20.80;93.50;;;;;;5067930;28;20366;-83
2021/01/06 06:01:32;;;;;;;12.57;1.63;;;20.90;93.90;;;;;;5069076;28;20517;-82
2021/01/06 06:04:27;;;;;;;7.68;1.27;;;21.00;94.00;;;;;;5068791;28;20468;-83
2021/01/06 06:07:04;;;;;;;8.63;1.27;;;20.90;94.10;;;;;;5067565;28;20394;-84
2021/01/06 06:09:55;;;;;;;6.22;1.05;;;21.00;94.50;;;;;;5068159;28;20405;-83
2021/01/06 06:12:38;;;;;;;10.93;1.90;;;21.00;94.70;;;;;;5068902;28;20397;-83
2021/01/06 06:15:20;;;;;;;11.38;1.80;;;20.90;94.30;;;;;;5056583;28;20408;-83
2021/01/06 06:18:21;;;;;;;8.90;1.35;;;20.90;94.40;;;;;;5068862;28;20393;-84
2021/01/06 06:21:06;;;;;;;8.25;1.42;;;21.00;94.90;;;;;;5064742;28;21186;-84
2021/01/06 06:24:13;;;;;;;8.60;1.23;;;21.00;93.80;;;;;;5054822;28;20400;-82
2021/01/06 06:26:43;;;;;;;7.45;1.40;;;21.00;93.60;;;;;;5068268;28;20902;-83
2021/01/06 06:29:21;;;;;;;9.52;2.13;;;20.90;94.20;;;;;;5067685;28;20370;-84
2021/01/06 06:31:55;;;;;;;6.70;1.35;;;20.80;94.10;;;;;;5067838;28;20485;-83
2021/01/06 06:34:31;;;;;;;9.93;1.80;;;20.80;94.60;;;;;;5076435;28;20418;-84
2021/01/06 06:37:15;;;;;;;12.55;1.73;;;20.70;94.30;;;;;;5066400;28;20461;-84
2021/01/06 06:39:42;;;;;;;7.70;1.67;;;20.70;95.00;;;;;;5064115;28;20395;-83
2021/01/06 06:42:17;;;;;;;6.55;1.42;;;20.50;94.90;;;;;;5065866;28;20992;-82
2021/01/06 06:44:55;;;;;;;7.97;1.45;;;20.50;94.70;;;;;;5067479;28;20462;-83
2021/01/06 06:47:54;;;;;;;9.55;1.48;;;20.50;94.70;;;;;;5066050;28;20749;-83
2021/01/06 06:50:48;;;;;;;11.10;1.58;;;20.60;94.20;;;;;;5035505;28;20492;-83
2021/01/06 06:53:21;;;;;;;9.25;1.52;;;20.80;94.60;;;;;;5063382;28;20812;-84
2021/01/06 06:56:28;;;;;;;10.05;1.80;;;20.80;94.30;;;;;;5067801;28;20394;-85
2021/01/06 06:59:21;;;;;;;8.82;1.70;;;20.70;94.50;;;;;;5066113;28;20394;-84
2021/01/06 07:01:50;;;;;;;8.88;1.65;;;20.50;95.10;;;;;;5059291;28;20413;-83
2021/01/06 07:04:27;;;;;;;13.90;1.60;;;20.30;95.80;;;;;;5068385;28;20462;-83
2021/01/06 07:07:00;;;;;;;9.63;1.60;;;20.10;96.50;;;;;;5068379;28;20398;-83
2021/01/06 07:09:38;;;;;;;8.73;1.23;;;20.10;96.10;;;;;;5067790;28;20386;-83
2021/01/06 07:12:09;;;;;;;10.75;1.58;;;20.10;96.00;;;;;;5072491;28;20393;-84
2021/01/06 07:15:00;;;;;;;9.50;1.85;;;20.10;95.00;;;;;;5072299;28;20468;-84
2021/01/06 07:17:30;;;;;;;9.73;1.58;;;20.00;95.40;;;;;;5072774;28;20436;-85
2021/01/06 07:20:01;;;;;;;9.13;1.60;;;20.00;95.30;;;;;;5072023;28;20467;-83
2021/01/06 07:22:37;;;;;;;8.23;1.65;;;20.00;95.40;;;;;;5070219;28;20485;-83
2021/01/06 07:25:29;;;;;;;9.63;1.70;;;20.00;95.90;;;;;;5070205;28;20390;-83
2021/01/06 07:27:59;;;;;;;10.85;1.80;;;20.00;95.80;;;;;;5069905;28;20388;-83
2021/01/06 07:30:37;;;;;;;11.50;1.90;;;20.00;96.40;;;;;;5069702;28;20407;-84
2021/01/06 07:33:36;;;;;;;9.43;1.98;;;20.00;96.30;;;;;;5067082;28;20382;-83
2021/01/06 07:36:32;;;;;;;8.38;1.65;;;20.00;96.90;;;;;;5070083;28;20413;-83
2021/01/06 07:39:01;;;;;;;11.35;2.47;;;19.90;96.20;;;;;;5042547;28;20471;-84
2021/01/06 07:41:29;;;;;;;12.05;1.92;;;19.80;97.00;;;;;;5067091;28;20417;-82
2021/01/06 07:44:07;;;;;;;9.25;1.45;;;19.80;97.00;;;;;;5070679;28;20382;-83
2021/01/06 07:46:58;;;;;;;11.60;1.90;;;19.80;96.90;;;;;;5059083;28;20390;-83
2021/01/06 07:50:01;;;;;;;12.52;2.22;;;19.70;96.60;;;;;;5066950;28;20418;-83
2021/01/06 07:52:51;;;;;;;9.10;1.60;;;19.70;97.10;;;;;;5052327;28;20452;-82
2021/01/06 07:55:31;;;;;;;14.00;2.13;;;19.80;96.60;;;;;;5043724;28;20450;-82
2021/01/06 07:58:07;;;;;;;13.55;2.05;;;19.70;96.40;;;;;;5063367;28;20405;-83
2021/01/06 08:00:58;;;;;;;10.18;2.25;;;19.70;96.50;;;;;;5068710;28;20744;-83
2021/01/06 08:03:48;;;;;;;11.90;2.13;;;19.70;96.70;;;;;;5066600;28;20398;-83
2021/01/06 08:06:17;;;;;;;12.90;1.88;;;19.80;96.50;;;;;;5068271;28;20393;-81
2021/01/06 08:08:49;;;;;;;13.20;1.60;;;19.70;97.40;;;;;;5067479;28;20414;-83
2021/01/06 08:11:19;;;;;;;13.27;1.83;;;19.50;97.60;;;;;;5070251;28;20402;-83
2021/01/06 08:13:52;;;;;;;11.27;1.88;;;19.50;97.50;;;;;;5071106;28;20405;-83
2021/01/06 08:16:25;;;;;;;11.93;1.80;;;19.30;98.10;;;;;;5070087;28;20386;-84
2021/01/06 08:18:55;;;;;;;11.13;1.58;;;19.30;98.60;;;;;;5064736;28;20409;-84
2021/01/06 08:21:35;;;;;;;11.20;1.88;;;19.20;98.40;;;;;;5068807;28;20401;-84
2021/01/06 08:24:22;;;;;;;13.05;1.85;;;19.20;97.80;;;;;;5068256;28;20381;-84
2021/01/06 08:26:52;;;;;;;8.90;1.45;;;19.20;97.60;;;;;;5063094;28;20743;-84
2021/01/06 08:29:33;;;;;;;8.50;1.50;;;19.10;97.60;;;;;;5059663;28;20529;-84
2021/01/06 08:32:10;;;;;;;11.75;1.40;;;19.10;97.10;;;;;;5069211;28;20387;-83
2021/01/06 08:35:03;;;;;;;10.90;1.60;;;19.20;96.70;;;;;;5068190;28;20810;-82
2021/01/06 08:37:39;;;;;;;9.97;2.07;;;19.20;96.40;;;;;;5061664;28;20409;-83
2021/01/06 08:40:27;;;;;;;8.60;1.63;;;19.30;96.00;;;;;;5062366;28;21065;-83
2021/01/06 08:42:55;;;;;;;5.63;1.30;;;19.30;96.20;;;;;;5056038;28;20452;-84
2021/01/06 08:45:51;;;;;;;11.70;2.33;;;19.30;96.50;;;;;;5065906;28;20398;-87
2021/01/06 08:48:21;;;;;;;11.25;1.70;;;19.30;96.70;;;;;;5059163;28;20886;-84
2021/01/06 08:50:49;;;;;;;9.18;1.90;;;19.30;96.70;;;;;;5060657;28;20419;-85
2021/01/06 08:53:16;;;;;;;9.57;1.35;;;19.30;96.50;;;;;;5066523;28;20390;-83
2021/01/06 08:55:58;;;;;;;11.25;1.85;;;19.30;96.80;;;;;;5061720;28;20895;-82
2021/01/06 08:58:45;;;;;;;9.48;1.50;;;19.30;96.50;;;;;;5052406;28;20372;-83
2021/01/06 09:01:27;;;;;;;12.60;2.42;;;19.30;97.00;;;;;;5062140;28;20406;-83
2021/01/06 09:04:11;;;;;;;11.23;2.05;;;19.30;97.00;;;;;;5065763;28;21185;-84
2021/01/06 09:06:50;;;;;;;15.23;2.33;;;19.30;97.00;;;;;;5064531;28;20398;-84
2021/01/06 09:09:38;;;;;;;13.65;2.03;;;19.30;96.80;;;;;;5061504;28;20386;-84
2021/01/06 09:12:41;;;;;;;12.13;2.17;;;19.30;97.00;;;;;;5065411;28;20398;-84
2021/01/06 09:15:20;;;;;;;9.93;1.87;;;19.30;96.90;;;;;;5057496;28;20956;-83
2021/01/06 09:18:19;;;;;;;13.52;2.00;;;19.30;96.90;;;;;;5063513;28;20475;-84
2021/01/06 09:21:04;;;;;;;7.75;1.83;;;19.30;96.60;;;;;;5057757;28;20406;-84
2021/01/06 09:23:37;;;;;;;9.77;1.50;;;19.30;96.90;;;;;;5060861;28;20448;-83
2021/01/06 09:26:05;;;;;;;8.87;1.53;;;19.20;96.80;;;;;;5063405;28;20424;-83
2021/01/06 09:28:37;;;;;;;10.07;1.38;;;19.20;97.10;;;;;;5062865;28;20471;-85
2021/01/06 09:31:06;;;;;;;9.95;1.33;;;19.20;97.10;;;;;;5061948;28;21234;-83
2021/01/06 09:33:41;;;;;;;7.55;1.58;;;19.10;96.80;;;;;;5059699;28;20769;-84
2021/01/06 09:36:09;;;;;;;7.87;1.50;;;19.10;96.70;;;;;;5057072;28;20419;-83
2021/01/06 09:38:51;;;;;;;9.63;1.33;;;19.10;96.60;;;;;;5062938;28;20520;-84
2021/01/06 09:41:27;;;;;;;8.68;1.40;;;19.10;96.30;;;;;;5060869;28;20417;-84
2021/01/06 09:44:07;;;;;;;11.20;1.80;;;19.10;96.40;;;;;;5062549;28;20406;-84
2021/01/06 09:46:41;;;;;;;10.35;1.52;;;19.20;95.90;;;;;;5064822;28;20398;-83
2021/01/06 09:49:35;;;;;;;9.88;1.70;;;19.10;95.90;;;;;;5066019;28;20447;-83
2021/01/06 09:52:18;;;;;;;12.85;1.75;;;19.10;96.30;;;;;;5063663;28;20394;-84
2021/01/06 09:54:51;;;;;;;9.27;2.13;;;19.00;96.10;;;;;;5064249;28;20421;-82
2021/01/06 09:57:19;;;;;;;7.47;1.17;;;19.00;96.10;;;;;;5065942;28;20447;-83
2021/01/06 09:59:51;;;;;;;11.43;1.70;;;19.10;95.90;;;;;;5065424;28;20443;-84
2021/01/06 10:02:36;;;;;;;11.57;1.75;;;19.10;96.40;;;;;;5065377;28;20901;-83
2021/01/06 10:05:32;;;;;;;13.15;2.10;;;19.00;97.20;;;;;;5063142;28;20484;-83
2021/01/06 10:08:28;;;;;;;10.43;2.13;;;18.90;97.70;;;;;;5061640;28;20404;-84
2021/01/06 10:11:06;;;;;;;11.30;2.03;;;18.90;98.20;;;;;;5042310;28;20401;-84
2021/01/06 10:13:51;;;;;;;10.25;1.58;;;18.80;98.40;;;;;;5064732;28;20455;-83
2021/01/06 10:17:01;;;;;;;11.40;1.73;;;18.80;98.50;;;;;;5064825;28;20422;-83
2021/01/06 10:19:42;;;;;;;8.55;1.80;;;18.70;98.70;;;;;;5023908;28;20812;-84
2021/01/06 10:22:28;;;;;;;13.90;2.30;;;18.70;98.70;;;;;;5065811;28;20370;-83
2021/01/06 10:25:20;;;;;;;12.83;1.90;;;18.70;98.90;;;;;;5064432;28;20750;-85
2021/01/06 10:28:11;;;;;;;10.00;1.53;;;18.70;98.80;;;;;;5048573;28;20425;-84
2021/01/06 10:30:38;;;;;;;14.88;1.85;;;18.60;98.90;;;;;;5063601;28;20393;-83
2021/01/06 10:33:13;;;;;;;7.38;1.65;;;18.60;98.90;;;;;;5064225;28;20414;-84
2021/01/06 10:36:06;;;;;;;10.20;1.77;;;18.60;98.80;;;;;;5065619;28;20488;-84
2021/01/06 10:38:46;;;;;;;10.68;1.70;;;18.60;98.70;;;;;;5054788;28;20394;-84
2021/01/06 10:41:22;;;;;;;10.48;1.50;;;18.60;98.10;;;;;;5059591;28;20780;-85
2021/01/06 10:43:52;;;;;;;9.73;1.77;;;18.70;98.00;;;;;;5045319;28;20392;-84
2021/01/06 10:46:41;;;;;;;11.85;1.60;;;18.70;97.30;;;;;;5038181;28;20443;-84
2021/01/06 10:49:35;;;;;;;11.05;1.70;;;18.80;97.10;;;;;;5030416;28;20381;-84
2021/01/06 10:52:16;;;;;;;10.73;1.80;;;18.80;96.70;;;;;;5031635;28;20391;-84
2021/01/06 10:54:59;;;;;;;6.93;1.27;;;18.80;96.50;;;;;;5048927;28;20431;-84
2021/01/06 10:57:37;;;;;;;9.30;1.33;;;18.90;96.00;;;;;;5048434;28;20388;-84
2021/01/06 11:00:19;;;;;;;8.52;1.38;;;18.90;96.30;;;;;;5040863;28;20405;-84
2021/01/06 11:03:13;;;;;;;7.30;1.30;;;18.90;95.90;;;;;;5032580;28;20395;-84
2021/01/06 11:05:53;;;;;;;7.88;1.48;;;18.90;95.90;;;;;;5029605;28;20397;-84
2021/01/06 11:08:48;;;;;;;10.45;1.60;;;18.90;95.80;;;;;;5029274;28;20405;-84
2021/01/06 11:11:34;;;;;;;10.55;1.50;;;18.90;96.90;;;;;;5028858;28;20374;-83
2021/01/06 11:14:25;;;;;;;8.98;1.73;;;18.80;98.20;;;;;;5028820;28;20409;-84
2021/01/06 11:17:13;;;;;;;11.38;1.83;;;18.70;98.60;;;;;;5046852;28;20433;-84
2021/01/06 11:19:49;;;;;;;9.25;1.48;;;18.60;99.10;;;;;;5043781;28;20915;-84
2021/01/06 11:22:35;;;;;;;10.05;1.42;;;18.60;99.30;;;;;;5047467;28;20426;-85
2021/01/06 11:25:03;;;;;;;8.70;1.50;;;18.50;99.30;;;;;;5038867;28;20745;-83
2021/01/06 11:27:51;;;;;;;10.05;1.45;;;18.60;99.10;;;;;;5044451;28;20426;-83
2021/01/06 11:30:32;;;;;;;9.82;1.58;;;18.50;99.90;;;;;;5043181;28;20881;-82
2021/01/06 11:33:15;;;;;;;10.82;1.23;;;18.10;99.90;;;;;;5045449;28;20902;-81
2021/01/06 11:35:58;;;;;;;9.70;1.38;;;17.70;99.90;;;;;;5045966;28;20469;-81
2021/01/06 11:38:40;;;;;;;8.73;1.30;;;17.40;99.90;;;;;;5047918;28;20728;-81
2021/01/06 11:41:17;;;;;;;9.32;1.50;;;17.20;99.90;;;;;;5057016;28;20451;-80
2021/01/06 11:44:13;;;;;;;5.70;1.20;;;17.10;99.90;;;;;;5064341;28;20452;-80
2021/01/06 11:46:40;;;;;;;7.63;1.33;;;17.10;99.90;;;;;;5041543;28;20889;-81
2021/01/06 11:49:13;;;;;;;6.75;1.17;;;17.20;99.90;;;;;;5067861;28;20509;-81
2021/01/06 11:52:00;;;;;;;8.60;1.50;;;17.10;99.90;;;;;;5063524;28;20385;-81
2021/01/06 11:54:30;;;;;;;8.95;1.23;;;17.20;99.90;;;;;;5067178;28;20402;-81
2021/01/06 11:57:17;;;;;;;8.32;1.35;;;17.20;99.90;;;;;;5069527;28;20389;-81
2021/01/06 12:00:00;;;;;;;12.30;1.85;;;17.20;99.90;;;;;;5069389;28;20489;-81
2021/01/06 12:02:33;;;;;;;9.70;1.60;;;17.30;99.90;;;;;;5065348;28;20443;-82
2021/01/06 12:05:24;;;;;;;11.53;1.83;;;17.40;99.90;;;;;;5066189;28;20401;-81
2021/01/06 12:07:51;;;;;;;8.65;1.65;;;17.40;99.90;;;;;;5066686;28;20402;-81
2021/01/06 12:10:26;;;;;;;9.43;1.52;;;17.30;99.90;;;;;;5070851;28;21005;-82
2021/01/06 12:13:12;;;;;;;8.65;1.30;;;17.30;99.90;;;;;;5054840;28;20393;-82
2021/01/06 12:15:52;;;;;;;7.43;1.30;;;17.30;99.90;;;;;;5071437;28;20410;-82
2021/01/06 12:18:55;;;;;;;11.32;1.50;;;17.30;99.90;;;;;;5070186;28;20390;-82
2021/01/06 12:21:34;;;;;;;9.63;1.30;;;17.40;99.90;;;;;;5068331;28;20439;-82
2021/01/06 12:24:33;;;;;;;11.15;1.40;;;17.40;99.90;;;;;;5070625;28;20473;-82
2021/01/06 12:27:09;;;;;;;11.45;1.63;;;17.40;99.90;;;;;;5026283;28;20402;-82
2021/01/06 12:29:54;;;;;;;13.33;1.43;;;17.50;99.90;;;;;;5070701;28;20394;-82
2021/01/06 12:32:33;;;;;;;9.30;1.42;;;17.30;99.90;;;;;;5071402;28;20982;-82
2021/01/06 12:35:28;;;;;;;10.97;1.30;;;17.20;99.90;;;;;;5065370;28;21215;-82
2021/01/06 12:38:18;;;;;;;11.73;1.50;;;17.20;99.90;;;;;;5069524;28;20550;-82
2021/01/06 12:41:04;;;;;;;10.90;1.45;;;17.10;99.90;;;;;;5063875;28;21092;-82
2021/01/06 12:44:00;;;;;;;10.70;1.67;;;17.10;99.90;;;;;;5054754;28;20388;-82
2021/01/06 12:46:41;;;;;;;9.48;1.58;;;17.10;99.90;;;;;;5060620;28;20390;-82
2021/01/06 12:49:31;;;;;;;8.40;1.73;;;17.10;99.90;;;;;;5068762;28;20390;-82
2021/01/06 12:52:25;;;;;;;10.15;1.52;;;17.10;99.90;;;;;;5068194;28;20389;-82
2021/01/06 12:55:21;;;;;;;14.13;1.60;;;17.20;99.90;;;;;;5065946;28;20413;-82
2021/01/06 12:58:08;;;;;;;9.38;1.50;;;17.20;99.90;;;;;;5069648;28;20405;-83
2021/01/06 13:00:41;;;;;;;8.27;1.57;;;17.20;99.90;;;;;;5069511;28;20526;-83
2021/01/06 13:03:21;;;;;;;9.32;1.63;;;17.30;99.90;;;;;;5068979;28;20402;-83
2021/01/06 13:05:53;;;;;;;6.88;1.23;;;17.30;99.90;;;;;;5063219;28;20881;-83
2021/01/06 13:08:36;;;;;;;11.43;1.93;;;17.30;99.90;;;;;;5068126;28;20390;-82
2021/01/06 13:11:11;;;;;;;8.15;1.40;;;17.30;99.90;;;;;;5068868;28;20783;-82
2021/01/06 13:13:41;;;;;;;6.55;1.35;;;17.40;99.90;;;;;;5070454;28;20370;-83
2021/01/06 13:16:23;;;;;;;9.95;1.52;;;17.30;99.90;;;;;;5068707;28;20390;-83
2021/01/06 13:18:58;;;;;;;9.05;1.65;;;17.30;99.90;;;;;;5057264;28;20868;-83
2021/01/06 13:21:35;;;;;;;13.00;1.40;;;17.30;99.90;;;;;;5069482;28;20439;-83
2021/01/06 13:24:18;;;;;;;12.60;1.70;;;17.20;99.90;;;;;;5077656;28;21205;-83
2021/01/06 13:27:00;;;;;;;11.70;2.00;;;17.20;99.90;;;;;;5067740;28;20489;-82
2021/01/06 13:29:57;;;;;;;10.10;1.40;;;17.30;99.90;;;;;;5058003;28;20799;-83
2021/01/06 13:32:57;;;;;;;9.85;1.80;;;17.30;99.90;;;;;;5048229;28;20400;-83
2021/01/06 13:35:56;;;;;;;8.13;1.48;;;17.30;99.90;;;;;;5066062;28;20812;-83
2021/01/06 13:38:29;;;;;;;9.73;1.67;;;17.30;99.90;;;;;;5051156;28;20498;-83
2021/01/06 13:41:21;;;;;;;8.10;2.03;;;17.30;99.90;;;;;;5068574;28;20414;-83